Time;durP1;ratioP1;P1;durP2;ratioP2;P2;SDS_P1;SDS_P2;PMS_P1;PMS_P2;Temp;Humidity;BMP_temperature;BMP_pressure;BME280_temperature;BME280_humidity;BME280_pressure;Samples;Min_cycle;Max_cycle;Signal;HPM_P1;HPM_P2
2021/05/28 00:00:09;;;;;;;5.05;3.20;;;;;;;2.57;97.89;93517.66;2096629;28;20024;-86
2021/05/28 00:01:09;;;;;;;5.20;3.50;;;;;;;2.56;98.16;93510.88;2095126;28;20047;-85
2021/05/28 00:02:10;;;;;;;3.92;3.33;;;;;;;2.56;98.77;93508.97;2094241;28;20024;-86
2021/05/28 00:03:11;;;;;;;4.60;3.50;;;;;;;2.57;99.03;93504.47;2090111;28;20103;-86
2021/05/28 00:04:12;;;;;;;4.53;3.00;;;;;;;2.55;99.15;93501.41;2097670;28;20126;-86
2021/05/28 00:05:13;;;;;;;5.72;2.97;;;;;;;2.45;98.88;93510.69;2094379;28;20052;-87
2021/05/28 00:06:14;;;;;;;5.03;2.97;;;;;;;2.48;98.14;93508.13;2106490;28;20016;-86
2021/05/28 00:07:14;;;;;;;3.78;3.13;;;;;;;2.52;98.39;93505.53;2109333;28;20021;-88
2021/05/28 00:08:15;;;;;;;5.30;3.42;;;;;;;2.55;98.45;93514.59;2106700;28;20028;-86
2021/05/28 00:09:16;;;;;;;3.80;3.47;;;;;;;2.49;98.22;93511.50;2106692;28;20028;-85
2021/05/28 00:10:17;;;;;;;4.32;3.13;;;;;;;2.52;98.46;93513.44;2105271;28;20034;-86
2021/05/28 00:11:17;;;;;;;4.05;3.20;;;;;;;2.44;98.52;93515.22;2106677;28;20093;-86
2021/05/28 00:12:18;;;;;;;5.90;3.15;;;;;;;2.49;98.17;93508.88;2115269;28;20090;-85
2021/05/28 00:13:19;;;;;;;3.40;3.10;;;;;;;2.49;98.45;93507.00;2114974;28;20488;-85
2021/05/28 00:14:19;;;;;;;3.60;3.22;;;;;;;2.47;98.39;93506.59;2106775;28;20073;-86
2021/05/28 00:15:20;;;;;;;6.60;3.35;;;;;;;2.49;98.46;93507.00;2098398;28;20016;-86
2021/05/28 00:16:21;;;;;;;7.03;3.47;;;;;;;2.47;97.87;93508.47;2106852;28;20060;-86
2021/05/28 00:17:22;;;;;;;4.85;2.97;;;;;;;2.44;97.57;93507.28;2106021;28;20520;-87
2021/05/28 00:18:23;;;;;;;4.72;2.97;;;;;;;2.46;97.72;93506.97;2102024;28;20031;-88
2021/05/28 00:19:23;;;;;;;3.67;3.10;;;;;;;2.46;97.00;93506.97;2099213;28;20115;-87
2021/05/28 00:20:24;;;;;;;5.68;3.30;;;;;;;2.44;97.21;93509.16;2108989;28;20028;-89
2021/05/28 00:21:25;;;;;;;4.85;3.20;;;;;;;2.46;96.71;93505.06;2106892;28;20024;-86
2021/05/28 00:22:26;;;;;;;4.93;3.15;;;;;;;2.37;96.89;93506.41;2098431;28;20058;-87
2021/05/28 00:23:26;;;;;;;3.45;2.90;;;;;;;2.34;96.54;93505.25;2106665;28;20054;-87
2021/05/28 00:24:27;;;;;;;5.90;3.05;;;;;;;2.34;96.72;93507.91;2097865;28;20027;-86
2021/05/28 00:25:29;;;;;;;6.00;3.17;;;;;;;2.36;96.98;93507.53;2115168;28;20031;-89
2021/05/28 00:26:30;;;;;;;7.57;3.30;;;;;;;2.34;97.48;93512.41;2106890;27;20069;-90
2021/05/28 00:27:31;;;;;;;3.50;3.20;;;;;;;2.35;97.87;93506.78;2104414;28;20765;-88
2021/05/28 00:28:32;;;;;;;4.65;3.33;;;;;;;2.32;98.63;93512.75;2097389;28;20055;-87
2021/05/28 00:29:33;;;;;;;3.50;2.97;;;;;;;2.35;98.63;93519.22;2103681;28;20052;-86
2021/05/28 00:30:34;;;;;;;5.10;3.08;;;;;;;2.34;98.03;93513.19;2119771;27;20058;-87
2021/05/28 00:31:34;;;;;;;3.78;2.83;;;;;;;2.31;98.23;93508.59;2106501;28;20023;-87
2021/05/28 00:32:35;;;;;;;3.67;3.20;;;;;;;2.32;98.17;93510.13;2115091;28;20020;-88
2021/05/28 00:33:36;;;;;;;4.85;2.80;;;;;;;2.29;98.14;93507.44;2110963;27;20080;-86
2021/05/28 00:34:36;;;;;;;4.40;2.90;;;;;;;2.27;97.31;93511.19;2106248;28;20027;-87
2021/05/28 00:35:37;;;;;;;4.75;2.80;;;;;;;2.32;97.21;93504.84;2099119;28;20032;-86
2021/05/28 00:36:38;;;;;;;4.43;2.72;;;;;;;2.37;96.84;93509.06;2097961;28;20033;-87
2021/05/28 00:37:39;;;;;;;5.50;3.10;;;;;;;2.34;96.92;93504.50;2106501;28;20066;-86
2021/05/28 00:38:41;;;;;;;6.65;3.13;;;;;;;2.32;96.54;93504.09;2098257;28;20027;-86
2021/05/28 00:39:41;;;;;;;3.83;2.97;;;;;;;2.33;96.57;93506.38;2100328;28;20029;-87
2021/05/28 00:40:42;;;;;;;3.80;3.05;;;;;;;2.33;96.63;93503.75;2096742;28;20020;-88
2021/05/28 00:41:43;;;;;;;5.25;3.05;;;;;;;2.23;96.78;93504.31;2106963;28;20032;-89
2021/05/28 00:42:44;;;;;;;4.05;3.30;;;;;;;2.20;97.22;93505.81;2104131;28;20513;-87
2021/05/28 00:43:44;;;;;;;3.05;2.75;;;;;;;2.17;97.87;93509.13;2109396;28;20050;-88
2021/05/28 00:44:45;;;;;;;4.38;3.22;;;;;;;2.18;98.16;93502.75;2105242;28;20749;-86
2021/05/28 00:45:46;;;;;;;3.42;3.13;;;;;;;2.20;98.27;93502.41;2108807;27;20106;-87
2021/05/28 00:46:47;;;;;;;3.38;3.00;;;;;;;2.20;98.41;93503.16;2110774;28;20020;-85
2021/05/28 00:47:47;;;;;;;3.88;2.92;;;;;;;2.19;98.18;93503.50;2105075;28;20020;-87
2021/05/28 00:48:51;;;;;;;5.15;3.13;;;;;;;2.16;98.16;93509.50;2098146;28;20016;-89
2021/05/28 00:49:52;;;;;;;5.57;3.83;;;;;;;2.14;99.54;93511.72;2098764;28;20028;-87
2021/05/28 00:50:53;;;;;;;5.13;3.42;;;;;;;2.21;100.00;93509.97;2105576;28;20454;-85
2021/05/28 00:51:54;;;;;;;5.38;3.10;;;;;;;2.19;100.00;93511.41;2115082;28;20030;-86
2021/05/28 00:52:57;;;;;;;5.15;3.50;;;;;;;2.21;100.00;93512.59;2107014;28;20019;-88
2021/05/28 00:53:57;;;;;;;6.00;3.45;;;;;;;2.22;100.00;93514.13;2102179;28;20020;-88
2021/05/28 00:54:58;;;;;;;6.10;3.65;;;;;;;2.25;100.00;93518.69;2099714;28;20054;-88
2021/05/28 00:56:00;;;;;;;7.18;3.50;;;;;;;2.24;100.00;93513.78;2119077;27;20094;-85
2021/05/28 00:57:01;;;;;;;6.78;3.72;;;;;;;2.20;100.00;93510.31;2111723;28;20033;-85
2021/05/28 00:58:02;;;;;;;4.55;3.42;;;;;;;2.17;99.87;93500.47;2098802;28;20032;-86
2021/05/28 00:59:03;;;;;;;5.00;3.90;;;;;;;2.07;99.24;93511.63;2117087;27;20047;-89
2021/05/28 01:00:06;;;;;;;7.15;3.40;;;;;;;2.13;99.52;93502.28;2115286;27;20028;-87
2021/05/28 01:01:08;;;;;;;7.55;3.53;;;;;;;2.10;99.52;93514.28;2123620;27;20023;-87
2021/05/28 01:02:09;;;;;;;5.63;3.33;;;;;;;2.11;99.24;93507.13;2120805;27;20386;-86
2021/05/28 01:03:10;;;;;;;8.32;3.95;;;;;;;2.11;99.68;93509.78;2107601;28;20027;-88
2021/05/28 01:04:12;;;;;;;7.18;3.70;;;;;;;2.16;100.00;93512.13;2114296;28;20031;-88
2021/05/28 01:05:13;;;;;;;10.13;3.75;;;;;;;2.09;99.89;93512.78;2106843;28;20053;-86
2021/05/28 01:06:13;;;;;;;6.10;3.70;;;;;;;2.08;100.00;93513.13;2095595;28;20038;-86
2021/05/28 01:07:14;;;;;;;7.13;3.33;;;;;;;2.06;99.84;93510.06;2099828;28;20024;-87
2021/05/28 01:08:16;;;;;;;7.60;3.78;;;;;;;2.11;99.36;93512.41;2098980;28;20021;-87
2021/05/28 01:09:16;;;;;;;4.53;3.50;;;;;;;2.08;99.29;93516.53;2097456;28;20017;-85
2021/05/28 01:10:17;;;;;;;4.35;3.53;;;;;;;2.07;98.00;93514.25;2095851;28;20016;-87
2021/05/28 01:11:18;;;;;;;5.20;3.20;;;;;;;2.08;98.08;93508.63;2097119;28;20116;-84
2021/05/28 01:12:18;;;;;;;5.30;3.55;;;;;;;2.07;98.50;93511.63;2098805;28;20058;-86
2021/05/28 01:13:19;;;;;;;6.43;3.47;;;;;;;2.05;98.60;93505.91;2109258;28;20035;-87
2021/05/28 01:14:20;;;;;;;5.70;3.17;;;;;;;2.16;98.68;93509.50;2111799;27;20039;-88
2021/05/28 01:15:21;;;;;;;9.32;3.75;;;;;;;2.11;97.97;93507.13;2105046;28;20028;-87
2021/05/28 01:16:21;;;;;;;7.25;3.80;;;;;;;2.07;98.36;93504.47;2104274;28;20056;-88
2021/05/28 01:17:22;;;;;;;7.82;3.78;;;;;;;2.04;98.41;93501.75;2097959;28;20458;-88
2021/05/28 01:18:23;;;;;;;6.10;3.40;;;;;;;2.05;98.56;93503.28;2105027;28;20036;-87
2021/05/28 01:19:25;;;;;;;7.80;3.92;;;;;;;1.98;98.89;93503.94;2101443;28;20027;-88
2021/05/28 01:20:26;;;;;;;7.07;3.70;;;;;;;1.96;99.17;93500.88;2089990;28;20075;-88
2021/05/28 01:21:28;;;;;;;4.75;3.20;;;;;;;1.96;99.04;93499.00;2090491;28;20040;-87
2021/05/28 01:22:28;;;;;;;4.90;3.25;;;;;;;1.95;98.80;93494.84;2089133;28;20024;-86
2021/05/28 01:23:29;;;;;;;7.03;3.67;;;;;;;1.95;98.48;93502.00;2088895;28;20495;-86
2021/05/28 01:24:30;;;;;;;5.75;3.50;;;;;;;1.95;98.61;93502.75;2097398;28;20023;-85
2021/05/28 01:25:32;;;;;;;7.80;3.75;;;;;;;1.95;98.38;93502.00;2107276;28;20020;-86
2021/05/28 01:26:33;;;;;;;5.63;3.40;;;;;;;1.95;99.06;93508.03;2091287;28;20484;-86
2021/05/28 01:27:34;;;;;;;3.95;3.13;;;;;;;1.97;99.36;93505.78;2092578;28;20029;-86
2021/05/28 01:28:35;;;;;;;4.65;3.22;;;;;;;1.95;99.38;93502.00;2101051;28;20028;-88
2021/05/28 01:29:35;;;;;;;4.88;3.40;;;;;;;1.88;99.19;93497.34;2106132;28;20048;-88
2021/05/28 01:30:36;;;;;;;4.50;3.65;;;;;;;1.89;100.00;93503.38;2090011;28;20012;-88
2021/05/28 01:31:37;;;;;;;7.18;3.67;;;;;;;1.89;100.00;93500.75;2089641;28;20024;-87
2021/05/28 01:32:38;;;;;;;4.85;3.17;;;;;;;1.84;100.00;93496.53;2096380;28;20028;-86
2021/05/28 01:33:42;;;;;;;7.07;3.63;;;;;;;1.76;100.00;93498.31;2108887;28;20039;-85
2021/05/28 01:34:43;;;;;;;4.70;3.35;;;;;;;1.79;100.00;93498.69;2087682;28;20485;-87
2021/05/28 01:35:43;;;;;;;7.80;3.83;;;;;;;1.78;99.75;93495.31;2093159;28;20040;-84
2021/05/28 01:36:44;;;;;;;4.63;3.58;;;;;;;1.78;99.25;93500.56;2105602;28;20028;-85
2021/05/28 01:37:45;;;;;;;3.80;3.22;;;;;;;1.79;98.97;93496.81;2111817;28;20460;-87
2021/05/28 01:38:46;;;;;;;7.97;3.30;;;;;;;1.73;99.24;93493.72;2102088;28;20016;-85
2021/05/28 01:39:50;;;;;;;5.50;3.60;;;;;;;1.75;99.32;93494.13;2099720;28;20054;-85
2021/05/28 01:40:52;;;;;;;4.07;3.25;;;;;;;1.75;99.25;93493.34;2097947;28;20024;-85
2021/05/28 01:41:52;;;;;;;4.07;3.10;;;;;;;1.76;99.52;93487.75;2089909;28;20029;-85
2021/05/28 01:42:53;;;;;;;5.50;3.30;;;;;;;1.74;99.21;93489.22;2099744;28;20035;-86
2021/05/28 01:43:54;;;;;;;5.03;3.88;;;;;;;1.78;98.96;93495.31;2099840;28;20020;-85
2021/05/28 01:44:57;;;;;;;7.45;3.95;;;;;;;1.79;98.47;93496.06;2097025;28;20012;-86
2021/05/28 01:45:58;;;;;;;4.55;3.00;;;;;;;1.85;98.77;93487.53;2103707;28;20110;-88
2021/05/28 01:46:58;;;;;;;7.28;3.20;;;;;;;1.87;98.58;93487.16;2098664;28;20020;-86
2021/05/28 01:48:01;;;;;;;6.75;3.28;;;;;;;1.79;98.29;93491.56;2087139;28;20095;-87
2021/05/28 01:49:03;;;;;;;6.35;3.10;;;;;;;1.75;98.26;93486.22;2095360;28;20047;-87
2021/05/28 01:50:05;;;;;;;4.90;3.05;;;;;;;1.73;98.21;93492.97;2089268;28;20029;-87
2021/05/28 01:51:07;;;;;;;3.72;3.40;;;;;;;1.69;97.67;93489.50;2087428;28;20131;-87
2021/05/28 01:52:12;;;;;;;6.13;3.60;;;;;;;1.62;98.32;93487.50;2095269;28;20033;-88
2021/05/28 01:53:16;;;;;;;4.22;3.10;;;;;;;1.61;98.82;93487.84;2099399;28;20020;-85
2021/05/28 01:54:19;;;;;;;4.15;3.50;;;;;;;1.61;98.59;93487.84;2093835;28;20032;-86
2021/05/28 01:55:19;;;;;;;7.53;3.40;;;;;;;1.56;99.74;93494.16;2087006;28;20080;-86
2021/05/28 01:56:20;;;;;;;5.47;3.67;;;;;;;1.58;100.00;93486.69;2084150;28;20024;-86
2021/05/28 01:57:21;;;;;;;5.13;3.30;;;;;;;1.62;100.00;93502.53;2097453;28;20589;-87
2021/05/28 01:58:23;;;;;;;7.47;3.20;;;;;;;1.65;100.00;93496.56;2097247;28;20553;-85
2021/05/28 01:59:26;;;;;;;5.60;3.50;;;;;;;1.63;100.00;93494.31;2089450;28;20032;-88
2021/05/28 02:00:26;;;;;;;4.97;3.75;;;;;;;1.63;100.00;93488.28;2089630;28;20036;-88
2021/05/28 02:01:30;;;;;;;4.72;3.65;;;;;;;1.66;100.00;93498.09;2097574;28;20397;-88
2021/05/28 02:02:30;;;;;;;5.65;3.90;;;;;;;1.60;100.00;93495.00;2104911;28;20086;-88
2021/05/28 02:05:26;;;;;;;;;;;;;;;1.67;100.00;93489.09;2148465;27;20129;-86
2021/05/28 02:06:26;;;;;;;5.85;3.22;;;;;;;1.66;100.00;93492.81;2121938;27;19911;-85
2021/05/28 02:07:27;;;;;;;4.38;3.47;;;;;;;1.66;100.00;93488.31;2104712;28;20074;-87
2021/05/28 02:08:27;;;;;;;6.10;3.55;;;;;;;1.61;100.00;93485.97;2104640;28;20085;-88
2021/05/28 02:09:28;;;;;;;5.35;3.70;;;;;;;1.55;99.92;93490.00;2104191;28;20111;-89
2021/05/28 02:10:30;;;;;;;9.35;3.70;;;;;;;1.57;100.00;93493.03;2113036;28;20031;-87
2021/05/28 02:11:31;;;;;;;10.75;3.60;;;;;;;1.49;99.65;93486.13;2112061;27;20115;-86
2021/05/28 02:12:31;;;;;;;7.80;4.40;;;;;;;1.49;99.53;93491.38;2112372;28;20051;-84
2021/05/28 02:13:32;;;;;;;12.50;4.70;;;;;;;1.49;99.78;93489.53;2127860;27;20023;-85
2021/05/28 02:14:33;;;;;;;5.05;3.75;;;;;;;1.50;99.71;93491.06;2121658;27;20026;-86
2021/05/28 02:15:33;;;;;;;7.90;3.50;;;;;;;1.49;99.86;93488.75;2113366;28;20042;-85
2021/05/28 02:16:35;;;;;;;6.85;3.58;;;;;;;1.50;99.78;93483.16;2118923;28;20027;-85
2021/05/28 02:17:35;;;;;;;6.10;3.50;;;;;;;1.51;100.00;93487.31;2121514;28;20057;-86
2021/05/28 02:18:36;;;;;;;6.50;3.40;;;;;;;1.50;100.00;93483.16;2112970;28;20020;-85
2021/05/28 02:19:37;;;;;;;4.90;3.38;;;;;;;1.59;100.00;93482.19;2122276;27;20061;-85
2021/05/28 02:20:38;;;;;;;7.03;3.10;;;;;;;1.54;99.63;93487.72;2113063;28;20027;-86
2021/05/28 02:21:38;;;;;;;5.40;2.90;;;;;;;1.50;98.88;93490.31;2118095;27;20362;-86
2021/05/28 02:22:39;;;;;;;5.20;3.20;;;;;;;1.52;98.39;93488.06;2125479;27;20462;-85
2021/05/28 02:23:40;;;;;;;6.93;3.15;;;;;;;1.45;98.13;93496.63;2118396;28;20019;-87
2021/05/28 02:24:40;;;;;;;7.55;3.88;;;;;;;1.43;97.99;93496.19;2121186;28;20027;-86
2021/05/28 02:25:41;;;;;;;5.13;3.20;;;;;;;1.36;98.13;93496.06;2104453;28;20027;-86
2021/05/28 02:26:45;;;;;;;5.18;3.47;;;;;;;1.32;98.53;93499.72;2104529;28;20119;-86
2021/05/28 02:27:46;;;;;;;4.43;2.90;;;;;;;1.33;98.46;93502.03;2108486;27;20395;-87
2021/05/28 02:28:46;;;;;;;5.35;3.10;;;;;;;1.33;99.20;93496.75;2103414;28;20031;-84
2021/05/28 02:29:47;;;;;;;6.85;3.40;;;;;;;1.38;99.74;93504.38;2112919;28;20487;-85
2021/05/28 02:30:48;;;;;;;6.15;3.72;;;;;;;1.36;100.00;93493.44;2106855;28;20183;-86
2021/05/28 02:31:48;;;;;;;6.47;3.40;;;;;;;1.33;100.00;93494.13;2112758;28;20474;-85
2021/05/28 02:32:49;;;;;;;5.10;2.83;;;;;;;1.37;99.59;93489.69;2112891;28;20089;-85
2021/05/28 02:33:50;;;;;;;4.90;2.97;;;;;;;1.38;98.58;93499.09;2103967;28;20127;-86
2021/05/28 02:34:50;;;;;;;4.97;3.28;;;;;;;1.45;97.58;93493.97;2112915;28;20035;-85
2021/05/28 02:35:51;;;;;;;6.90;3.10;;;;;;;1.41;97.23;93493.16;2129894;27;20031;-84
2021/05/28 02:36:52;;;;;;;3.10;2.80;;;;;;;1.37;97.76;93494.94;2121238;28;20019;-85
2021/05/28 02:37:52;;;;;;;4.45;2.95;;;;;;;1.37;97.39;93499.47;2104321;28;20024;-86
2021/05/28 02:38:53;;;;;;;4.85;2.90;;;;;;;1.39;97.71;93499.88;2104115;28;20024;-85
2021/05/28 02:39:54;;;;;;;3.92;2.50;;;;;;;1.33;97.35;93494.13;2111289;28;20031;-86
2021/05/28 02:40:55;;;;;;;5.68;2.90;;;;;;;1.33;98.37;93502.03;2116238;28;20016;-86
2021/05/28 02:41:55;;;;;;;4.63;3.08;;;;;;;1.31;99.17;93495.56;2112854;28;20031;-84
2021/05/28 02:42:56;;;;;;;7.35;3.10;;;;;;;1.28;99.29;93493.66;2104455;28;20044;-85
2021/05/28 02:43:57;;;;;;;5.60;3.05;;;;;;;1.27;99.01;93503.38;2121053;28;20479;-85
2021/05/28 02:44:57;;;;;;;6.57;3.20;;;;;;;1.29;98.54;93501.19;2112591;28;20023;-86
2021/05/28 02:45:58;;;;;;;7.35;3.05;;;;;;;1.35;98.01;93497.16;2112278;28;20030;-85
2021/05/28 02:46:59;;;;;;;7.00;3.30;;;;;;;1.34;97.41;93498.28;2104245;28;20099;-86
2021/05/28 02:47:59;;;;;;;4.45;3.53;;;;;;;1.27;96.95;93490.22;2104396;28;20488;-85
2021/05/28 02:49:02;;;;;;;6.38;3.00;;;;;;;1.21;97.53;93495.03;2112557;28;20024;-85
2021/05/28 02:50:04;;;;;;;5.25;3.13;;;;;;;1.18;97.97;93494.94;2113383;27;20031;-86
2021/05/28 02:51:05;;;;;;;7.68;3.33;;;;;;;1.21;97.88;93499.53;2121201;27;20019;-86
2021/05/28 02:52:06;;;;;;;4.97;3.22;;;;;;;1.22;97.70;93496.53;2112694;28;20105;-85
2021/05/28 02:53:06;;;;;;;3.42;3.08;;;;;;;1.19;98.28;93496.50;2096780;28;20021;-86
2021/05/28 02:54:07;;;;;;;6.53;3.28;;;;;;;1.18;98.57;93495.69;2121116;28;20027;-85
2021/05/28 02:55:08;;;;;;;7.03;2.92;;;;;;;1.15;99.14;93490.38;2112783;28;20023;-86
2021/05/28 02:56:09;;;;;;;5.35;3.35;;;;;;;1.17;99.78;93488.91;2099116;28;20020;-85
2021/05/28 02:57:11;;;;;;;5.70;3.45;;;;;;;1.16;100.00;93491.91;2112746;28;20023;-85
2021/05/28 02:58:12;;;;;;;5.72;3.20;;;;;;;1.16;100.00;93487.41;2116325;28;20114;-85
2021/05/28 02:59:12;;;;;;;3.65;3.08;;;;;;;1.10;99.71;93488.00;2120928;28;20023;-86
2021/05/28 03:00:14;;;;;;;6.10;3.38;;;;;;;1.15;99.13;93483.25;2112706;28;20031;-86
2021/05/28 03:01:15;;;;;;;6.03;2.80;;;;;;;1.23;98.63;93481.53;2096012;28;20035;-86
2021/05/28 03:02:18;;;;;;;6.63;3.58;;;;;;;1.22;98.33;93486.00;2095675;28;20413;-86
2021/05/28 03:03:18;;;;;;;4.95;3.42;;;;;;;1.15;98.35;93479.84;2113232;27;20032;-85
2021/05/28 03:04:19;;;;;;;7.22;3.45;;;;;;;1.16;98.57;93481.38;2113866;28;20031;-85
2021/05/28 03:05:20;;;;;;;5.70;3.22;;;;;;;1.16;98.57;93481.38;2103716;28;20071;-86
2021/05/28 03:06:21;;;;;;;4.32;3.10;;;;;;;1.13;97.97;93482.06;2107890;28;20031;-86
2021/05/28 03:07:21;;;;;;;5.85;3.08;;;;;;;1.12;98.22;93491.06;2112752;28;20020;-86
2021/05/28 03:08:22;;;;;;;6.40;3.35;;;;;;;1.09;98.45;93486.50;2104031;28;20039;-86
2021/05/28 03:09:23;;;;;;;3.47;3.00;;;;;;;1.07;98.67;93484.22;2100709;28;20036;-85
2021/05/28 03:10:24;;;;;;;6.63;3.50;;;;;;;1.10;99.70;93480.13;2104228;28;20464;-86
2021/05/28 03:11:24;;;;;;;4.07;3.13;;;;;;;1.07;99.49;93484.22;2095972;28;20045;-86
2021/05/28 03:12:25;;;;;;;4.35;3.30;;;;;;;1.08;100.00;93488.38;2115035;28;20020;-85
2021/05/28 03:13:26;;;;;;;4.10;3.03;;;;;;;0.99;99.57;93487.81;2111274;28;20110;-87
2021/05/28 03:14:26;;;;;;;4.47;3.10;;;;;;;0.94;99.90;93485.47;2120888;28;20020;-85
2021/05/28 03:15:27;;;;;;;4.95;3.10;;;;;;;0.94;99.36;93486.22;2113095;28;20031;-87
2021/05/28 03:16:28;;;;;;;4.07;3.35;;;;;;;0.96;99.59;93488.50;2108934;28;20024;-87
2021/05/28 03:17:29;;;;;;;4.82;3.10;;;;;;;0.95;99.16;93490.38;2106990;28;20049;-85
2021/05/28 03:18:47;;;;;;;3.40;2.80;;;;;;;0.93;99.23;93489.19;2106707;28;20085;-84
2021/05/28 03:19:48;;;;;;;3.33;3.00;;;;;;;0.94;98.95;93488.09;2116255;27;20905;-85
2021/05/28 03:21:19;;;;;;;4.90;3.03;;;;;;;0.93;99.10;93495.22;2106028;28;20058;-85
2021/05/28 03:22:32;;;;;;;4.63;2.67;;;;;;;0.91;99.17;93488.78;2104066;28;20084;-86
2021/05/28 03:23:35;;;;;;;3.90;2.88;;;;;;;0.92;99.59;93483.19;2099565;28;20119;-87
2021/05/28 03:24:36;;;;;;;4.97;2.90;;;;;;;0.95;100.00;93485.09;2090747;28;20025;-86
2021/05/28 03:25:38;;;;;;;7.10;2.70;;;;;;;0.98;100.00;93489.69;2090256;28;20028;-86
2021/05/28 03:26:39;;;;;;;5.10;3.13;;;;;;;0.93;100.00;93487.31;2089458;28;20036;-86
2021/05/28 03:27:40;;;;;;;6.32;3.30;;;;;;;0.96;100.00;93486.63;2090343;28;20374;-86
2021/05/28 03:28:41;;;;;;;5.80;2.90;;;;;;;1.04;99.79;93487.53;2098302;28;20043;-86
2021/05/28 03:29:42;;;;;;;3.20;2.90;;;;;;;1.02;99.77;93486.38;2098365;28;20024;-88
2021/05/28 03:30:42;;;;;;;2.85;2.65;;;;;;;0.93;99.01;93489.19;2106696;28;20027;-85
2021/05/28 03:31:43;;;;;;;4.25;2.70;;;;;;;0.90;99.46;93489.88;2090233;28;20903;-86
2021/05/28 03:32:44;;;;;;;3.85;2.97;;;;;;;0.92;99.34;93483.19;2089967;28;20689;-86
2021/05/28 03:33:44;;;;;;;5.22;3.03;;;;;;;0.96;98.89;93489.25;2098389;28;20028;-86
2021/05/28 03:34:45;;;;;;;3.97;2.90;;;;;;;0.97;99.39;93488.16;2106753;28;20070;-86
2021/05/28 03:35:46;;;;;;;5.97;3.00;;;;;;;0.99;100.00;93496.47;2098511;28;20036;-87
2021/05/28 03:36:46;;;;;;;6.18;3.00;;;;;;;0.95;100.00;93484.34;2090326;28;20024;-86
2021/05/28 03:37:47;;;;;;;7.07;2.78;;;;;;;0.95;100.00;93484.34;2109075;28;20525;-86
2021/05/28 03:38:48;;;;;;;3.70;2.65;;;;;;;0.86;99.77;93479.28;2108997;28;20020;-86
2021/05/28 03:39:50;;;;;;;11.70;3.00;;;;;;;0.86;100.00;93474.00;2091894;28;20021;-86
2021/05/28 03:40:50;;;;;;;3.50;3.20;;;;;;;0.88;100.00;93471.03;2098626;28;20027;-86
2021/05/28 03:41:51;;;;;;;8.48;2.92;;;;;;;0.88;100.00;93474.44;2098203;28;20028;-87
2021/05/28 03:42:52;;;;;;;3.15;2.85;;;;;;;0.83;100.00;93477.31;2090106;28;20052;-87
2021/05/28 03:43:52;;;;;;;4.88;2.95;;;;;;;0.87;100.00;93487.94;2089783;28;20021;-86
2021/05/28 03:44:53;;;;;;;3.00;2.80;;;;;;;0.87;100.00;93480.03;2101503;28;20034;-85
2021/05/28 03:45:54;;;;;;;3.25;2.95;;;;;;;0.92;100.00;93482.38;2111871;28;20069;-85
2021/05/28 03:46:55;;;;;;;3.15;2.90;;;;;;;0.92;100.00;93483.19;2090064;28;20685;-87
2021/05/28 03:47:56;;;;;;;3.40;3.10;;;;;;;0.98;100.00;93476.53;2090068;28;20021;-86
2021/05/28 03:48:57;;;;;;;3.13;2.83;;;;;;;0.97;100.00;93476.88;2100677;28;20042;-86
2021/05/28 03:49:59;;;;;;;8.75;3.20;;;;;;;0.96;100.00;93478.72;2090127;28;20390;-87
2021/05/28 03:50:59;;;;;;;7.07;3.08;;;;;;;0.93;100.00;93473.41;2094070;28;20460;-86
2021/05/28 03:52:00;;;;;;;3.38;2.63;;;;;;;0.95;100.00;93479.09;2104683;28;20028;-86
2021/05/28 03:53:01;;;;;;;3.15;2.58;;;;;;;0.97;100.00;93480.28;2119390;27;20467;-86
2021/05/28 03:54:02;;;;;;;4.10;2.70;;;;;;;0.96;99.96;93473.47;2102235;28;20028;-86
2021/05/28 03:55:03;;;;;;;4.65;2.88;;;;;;;0.98;100.00;93478.41;2089922;28;20127;-85
2021/05/28 03:56:04;;;;;;;3.40;2.65;;;;;;;0.95;100.00;93477.22;2098102;28;20028;-86
2021/05/28 03:57:06;;;;;;;4.10;2.75;;;;;;;0.95;100.00;93477.22;2090051;28;20082;-86
2021/05/28 03:58:06;;;;;;;4.45;3.03;;;;;;;0.95;100.00;93477.22;2103105;28;20460;-86
2021/05/28 03:59:07;;;;;;;8.30;3.17;;;;;;;0.98;100.00;93481.78;2088309;28;20021;-87
2021/05/28 04:00:08;;;;;;;5.50;3.30;;;;;;;0.97;100.00;93474.25;2109247;28;20803;-86
2021/05/28 04:01:09;;;;;;;3.50;3.20;;;;;;;0.96;99.97;93473.47;2110068;28;20073;-87
2021/05/28 04:02:10;;;;;;;5.97;3.08;;;;;;;0.98;100.00;93481.03;2098258;28;20020;-85
2021/05/28 04:03:11;;;;;;;8.43;3.22;;;;;;;0.94;100.00;93474.94;2111003;28;20066;-85
2021/05/28 04:04:11;;;;;;;3.95;2.85;;;;;;;0.96;100.00;93477.97;2100386;28;20025;-86
2021/05/28 04:05:14;;;;;;;10.02;3.45;;;;;;;0.95;100.00;93476.44;2097878;28;20090;-85
2021/05/28 04:06:14;;;;;;;5.47;3.20;;;;;;;0.97;100.00;93471.63;2101791;28;20024;-86
2021/05/28 04:07:15;;;;;;;5.13;2.85;;;;;;;1.00;100.00;93484.81;2106703;28;20384;-86
2021/05/28 04:08:16;;;;;;;5.60;2.97;;;;;;;0.98;100.00;93479.16;2116688;27;20047;-86
2021/05/28 04:09:17;;;;;;;4.05;2.85;;;;;;;1.02;100.00;93475.84;2114936;28;20027;-86
2021/05/28 04:10:17;;;;;;;3.22;2.72;;;;;;;1.04;100.00;93482.25;2106488;28;20106;-85
2021/05/28 04:11:18;;;;;;;4.15;3.10;;;;;;;1.08;100.00;93480.47;2110978;28;20032;-85
2021/05/28 04:12:19;;;;;;;5.22;3.10;;;;;;;1.11;100.00;93481.66;2098153;28;20028;-86
2021/05/28 04:13:19;;;;;;;4.88;2.72;;;;;;;1.10;100.00;93477.47;2098068;28;20526;-86
2021/05/28 04:14:20;;;;;;;6.53;3.22;;;;;;;1.14;100.00;93476.47;2100753;28;20103;-86
2021/05/28 04:15:21;;;;;;;5.25;2.90;;;;;;;1.13;100.00;93476.78;2093557;28;20139;-85
2021/05/28 04:16:21;;;;;;;5.70;3.75;;;;;;;1.12;100.00;93477.91;2094709;28;20450;-85
2021/05/28 04:17:22;;;;;;;4.70;3.10;;;;;;;1.15;100.00;93477.22;2098150;28;20020;-86
2021/05/28 04:18:23;;;;;;;5.63;3.53;;;;;;;1.18;100.00;93479.91;2105292;28;20393;-85
2021/05/28 04:19:24;;;;;;;8.52;4.07;;;;;;;1.17;100.00;93481.03;2104333;28;20086;-85
2021/05/28 04:20:25;;;;;;;8.35;4.65;;;;;;;1.20;100.00;93482.22;2103805;28;20155;-85
2021/05/28 04:21:26;;;;;;;9.15;4.80;;;;;;;1.25;100.00;93484.56;2097925;28;20032;-86
2021/05/28 04:22:27;;;;;;;10.57;5.38;;;;;;;1.29;100.00;93480.13;2098908;28;20070;-85
2021/05/28 04:23:27;;;;;;;28.50;15.50;;;;;;;1.29;100.00;93468.84;2097735;28;20016;-85
2021/05/28 04:24:28;;;;;;;11.82;6.32;;;;;;;1.30;100.00;93467.72;2093198;28;20062;-85
2021/05/28 04:25:29;;;;;;;13.30;8.07;;;;;;;1.33;100.00;93477.56;2093680;28;20020;-86
2021/05/28 04:26:30;;;;;;;13.38;7.38;;;;;;;1.36;100.00;93468.94;2097995;28;20078;-86
2021/05/28 04:27:31;;;;;;;15.77;8.05;;;;;;;1.34;100.00;93466.69;2097971;28;20020;-85
2021/05/28 04:28:31;;;;;;;7.88;4.75;;;;;;;1.39;100.00;93469.03;2081052;28;20025;-86
2021/05/28 04:29:32;;;;;;;7.97;4.35;;;;;;;1.39;100.00;93463.00;2089411;28;20021;-85
2021/05/28 04:30:33;;;;;;;6.03;4.32;;;;;;;1.39;100.00;93461.13;2089730;28;20059;-87
2021/05/28 04:31:34;;;;;;;6.78;4.40;;;;;;;1.45;100.00;93469.50;2090614;28;20094;-85
2021/05/28 04:32:34;;;;;;;6.95;6.25;;;;;;;1.44;100.00;93466.09;2097158;28;20099;-86
2021/05/28 04:33:35;;;;;;;9.18;6.78;;;;;;;1.46;100.00;93466.53;2089812;28;20021;-86
2021/05/28 04:34:37;;;;;;;7.88;5.88;;;;;;;1.48;100.00;93466.94;2089389;28;20104;-87
2021/05/28 04:35:38;;;;;;;8.93;5.00;;;;;;;1.48;100.00;93455.63;2098111;28;20385;-85
2021/05/28 04:36:38;;;;;;;9.07;6.53;;;;;;;1.47;100.00;93465.41;2097881;28;20020;-85
2021/05/28 04:37:39;;;;;;;6.47;5.50;;;;;;;1.52;100.00;93459.84;2089698;28;20051;-87
2021/05/28 04:38:40;;;;;;;9.93;5.65;;;;;;;1.54;100.00;93467.41;2097897;28;20107;-86
2021/05/28 04:39:40;;;;;;;6.65;5.53;;;;;;;1.56;100.00;93467.06;2097881;28;20115;-86
2021/05/28 04:40:42;;;;;;;7.07;5.03;;;;;;;1.60;100.00;93462.63;2097963;28;20027;-86
2021/05/28 04:41:43;;;;;;;6.05;5.45;;;;;;;1.64;100.00;93463.44;2097829;28;20031;-86
2021/05/28 04:42:43;;;;;;;11.50;8.90;;;;;;;1.64;100.00;93458.19;2099405;28;20056;-86
2021/05/28 04:43:44;;;;;;;8.88;7.03;;;;;;;1.65;100.00;93463.09;2101189;28;20405;-86
2021/05/28 04:44:45;;;;;;;11.43;5.60;;;;;;;1.66;100.00;93464.59;2116721;27;20027;-86
2021/05/28 04:45:45;;;;;;;9.82;5.55;;;;;;;1.70;100.00;93464.66;2106163;28;20020;-86
2021/05/28 04:46:46;;;;;;;6.93;5.40;;;;;;;1.73;100.00;93461.34;2097528;28;20055;-85
2021/05/28 04:47:47;;;;;;;8.48;5.82;;;;;;;1.76;100.00;93471.19;2091888;28;20056;-86
2021/05/28 04:48:48;;;;;;;7.38;5.97;;;;;;;1.80;100.00;93464.09;2103444;28;20024;-86
2021/05/28 04:49:49;;;;;;;8.60;7.57;;;;;;;1.81;100.00;93463.00;2097572;28;20127;-85
2021/05/28 04:50:50;;;;;;;10.63;8.65;;;;;;;1.83;100.00;93463.38;2096746;28;20428;-85
2021/05/28 04:51:51;;;;;;;9.57;7.82;;;;;;;1.87;100.00;93460.81;2095426;28;20937;-85